Time;durP1;ratioP1;P1;durP2;ratioP2;P2;SDS_P1;SDS_P2;PMS_P1;PMS_P2;Temp;Humidity;BMP_temperature;BMP_pressure;BME280_temperature;BME280_humidity;BME280_pressure;Samples;Min_cycle;Max_cycle;Signal;HPM_P1;HPM_P2
2023/04/18 00:00:32;;;;;;;16.35;7.07;;;8.10;99.90;;;;;;5095158;28;20058;-75
2023/04/18 00:02:57;;;;;;;16.75;7.70;;;8.10;99.90;;;;;;5094980;28;20024;-75
2023/04/18 00:05:23;;;;;;;13.43;6.53;;;8.10;99.90;;;;;;5076672;28;20020;-75
2023/04/18 00:07:50;;;;;;;17.60;6.95;;;8.00;99.90;;;;;;5094718;28;20024;-75
2023/04/18 00:10:16;;;;;;;13.70;7.05;;;8.00;99.90;;;;;;5076831;28;20016;-75
2023/04/18 00:12:44;;;;;;;14.25;6.93;;;8.00;99.90;;;;;;5094924;28;20489;-75
2023/04/18 00:15:11;;;;;;;18.48;7.38;;;8.00;99.90;;;;;;5076558;28;20031;-76
2023/04/18 00:17:39;;;;;;;12.70;6.05;;;8.00;99.90;;;;;;5094661;28;20028;-75
2023/04/18 00:20:09;;;;;;;21.33;6.57;;;8.00;99.90;;;;;;5077099;28;20013;-73
2023/04/18 00:22:35;;;;;;;14.90;5.63;;;;;;;;;;5076712;28;20149;-73
2023/04/18 00:25:01;;;;;;;15.30;6.03;;;7.90;99.90;;;;;;5094729;28;20059;-75
2023/04/18 00:27:27;;;;;;;13.80;6.72;;;7.90;99.90;;;;;;5093783;28;20406;-74
2023/04/18 00:29:52;;;;;;;15.65;6.50;;;7.90;99.90;;;;;;5095133;28;20031;-74
2023/04/18 00:32:20;;;;;;;14.18;6.70;;;7.90;99.90;;;;;;5076377;28;20386;-73
2023/04/18 00:34:46;;;;;;;15.60;5.63;;;7.90;99.90;;;;;;5076235;28;20548;-74
2023/04/18 00:37:15;;;;;;;12.95;5.60;;;7.90;99.90;;;;;;5094214;28;20024;-74
2023/04/18 00:39:40;;;;;;;18.33;5.25;;;7.80;99.90;;;;;;5076170;28;20016;-75
2023/04/18 00:42:11;;;;;;;15.35;6.03;;;7.80;99.90;;;;;;5094249;28;20122;-74
2023/04/18 00:44:37;;;;;;;11.73;5.22;;;7.80;99.90;;;;;;5094296;28;20368;-75
2023/04/18 00:47:09;;;;;;;10.82;5.57;;;7.70;99.90;;;;;;5094163;28;20035;-74
2023/04/18 00:49:37;;;;;;;12.07;5.10;;;7.70;99.90;;;;;;5075963;28;20027;-74
2023/04/18 00:52:03;;;;;;;14.60;5.05;;;7.70;99.90;;;;;;5076139;28;20455;-74
2023/04/18 00:54:29;;;;;;;10.85;4.95;;;7.60;99.90;;;;;;5075961;28;20115;-74
2023/04/18 00:57:01;;;;;;;19.52;5.95;;;7.60;99.90;;;;;;5075862;28;20059;-74
2023/04/18 00:59:27;;;;;;;11.32;4.85;;;7.60;99.90;;;;;;5076114;28;20027;-75
2023/04/18 01:01:53;;;;;;;9.98;4.78;;;;;;;;;;5093983;28;20055;-74
2023/04/18 01:04:18;;;;;;;7.40;4.05;;;7.50;99.90;;;;;;5093934;28;20024;-74
2023/04/18 01:06:46;;;;;;;8.65;4.03;;;7.40;99.90;;;;;;5093806;28;20024;-74
2023/04/18 01:09:12;;;;;;;8.82;4.47;;;7.20;99.90;;;;;;5094797;28;20041;-75
2023/04/18 01:11:40;;;;;;;10.90;4.63;;;7.40;99.90;;;;;;5075797;28;20111;-74
2023/04/18 01:14:17;;;;;;;10.03;4.47;;;7.30;99.90;;;;;;5075467;28;20507;-74
2023/04/18 01:16:43;;;;;;;8.10;4.38;;;7.20;99.90;;;;;;5093884;28;20020;-74
2023/04/18 01:19:08;;;;;;;7.90;4.05;;;7.20;99.90;;;;;;5075554;28;20047;-74
2023/04/18 01:21:35;;;;;;;8.75;4.35;;;7.20;99.90;;;;;;5093721;28;20024;-74
2023/04/18 01:24:13;;;;;;;9.52;3.13;;;7.20;99.90;;;;;;5093314;28;20016;-74
2023/04/18 01:26:42;;;;;;;7.95;3.80;;;7.10;99.90;;;;;;5093542;28;20032;-74
2023/04/18 01:29:08;;;;;;;10.35;4.22;;;7.10;99.90;;;;;;5093603;28;20073;-75
2023/04/18 01:31:35;;;;;;;8.63;3.42;;;;;;;;;;5093538;28;20024;-74
2023/04/18 01:34:01;;;;;;;7.50;3.60;;;7.00;99.90;;;;;;5093500;28;20030;-74
2023/04/18 01:36:26;;;;;;;13.95;3.45;;;6.90;99.90;;;;;;5093402;28;20032;-74
2023/04/18 01:38:52;;;;;;;9.52;4.35;;;7.00;99.90;;;;;;5079961;28;20024;-74
2023/04/18 01:41:21;;;;;;;9.15;3.92;;;6.90;99.90;;;;;;5100271;28;20514;-74
2023/04/18 01:43:46;;;;;;;7.57;3.30;;;6.80;99.90;;;;;;5100828;28;20039;-74
2023/04/18 01:46:12;;;;;;;9.50;3.85;;;6.80;99.90;;;;;;5100203;28;20387;-74
2023/04/18 01:48:40;;;;;;;6.43;3.05;;;6.80;99.90;;;;;;5100335;28;20390;-74
2023/04/18 01:51:06;;;;;;;6.55;3.17;;;6.70;99.90;;;;;;5082129;28;20030;-74
2023/04/18 01:53:31;;;;;;;8.32;3.40;;;6.60;99.90;;;;;;5100190;28;20424;-74
2023/04/18 01:56:00;;;;;;;9.55;3.72;;;6.60;99.90;;;;;;5100201;28;20027;-74
2023/04/18 01:58:26;;;;;;;9.48;3.83;;;6.50;99.90;;;;;;5081827;28;20525;-74
2023/04/18 02:00:56;;;;;;;10.05;4.18;;;6.50;99.90;;;;;;5099815;28;20020;-74
2023/04/18 02:03:24;;;;;;;6.22;3.10;;;6.50;99.90;;;;;;5099866;28;20099;-74
2023/04/18 02:05:50;;;;;;;6.32;2.97;;;6.40;99.90;;;;;;5099956;28;20526;-74
2023/04/18 02:08:19;;;;;;;8.77;2.92;;;6.40;99.90;;;;;;5100426;28;20028;-74
2023/04/18 02:10:44;;;;;;;11.75;2.72;;;6.40;99.90;;;;;;5100476;28;20471;-74
2023/04/18 02:13:14;;;;;;;6.25;2.88;;;6.40;99.90;;;;;;5081646;28;20066;-74
2023/04/18 02:15:42;;;;;;;10.10;3.13;;;6.40;99.90;;;;;;5081584;28;20066;-74
2023/04/18 02:18:08;;;;;;;5.72;2.70;;;6.40;99.90;;;;;;5081512;28;20027;-74
2023/04/18 02:20:35;;;;;;;7.97;3.30;;;6.40;99.90;;;;;;5081551;28;20024;-74
2023/04/18 02:23:04;;;;;;;9.68;3.90;;;6.30;99.90;;;;;;5099813;28;20069;-74
2023/04/18 02:25:29;;;;;;;;;;;6.30;99.90;;;;;;5082075;28;20069;-74
2023/04/18 02:27:56;;;;;;;6.20;3.05;;;6.20;99.90;;;;;;5099648;28;20363;-74
2023/04/18 02:30:25;;;;;;;10.73;3.45;;;6.10;99.90;;;;;;5081493;28;20058;-74
2023/04/18 02:32:57;;;;;;;7.18;3.10;;;6.10;99.90;;;;;;5081367;28;20062;-74
2023/04/18 02:35:27;;;;;;;9.98;3.95;;;6.10;99.90;;;;;;5099858;28;20031;-74
2023/04/18 02:37:52;;;;;;;8.15;4.10;;;6.10;99.90;;;;;;5099470;28;20039;-74
2023/04/18 02:40:19;;;;;;;9.00;3.63;;;6.00;99.90;;;;;;5100108;28;20024;-74
2023/04/18 02:42:44;;;;;;;5.75;3.22;;;6.10;99.90;;;;;;5099663;28;20016;-74
2023/04/18 02:45:10;;;;;;;6.70;2.78;;;6.00;99.90;;;;;;5100063;28;20516;-74
2023/04/18 02:47:37;;;;;;;8.93;3.13;;;6.00;99.90;;;;;;5081195;28;20028;-74
2023/04/18 02:50:03;;;;;;;9.43;3.47;;;6.10;99.90;;;;;;5096983;28;20024;-74
2023/04/18 02:52:32;;;;;;;8.25;3.22;;;6.00;99.90;;;;;;5096082;28;20441;-74
2023/04/18 02:55:01;;;;;;;10.02;3.97;;;6.10;99.90;;;;;;5078186;28;20032;-74
2023/04/18 02:57:26;;;;;;;6.00;3.42;;;6.20;99.90;;;;;;5077914;28;20101;-74
2023/04/18 02:59:52;;;;;;;8.10;3.55;;;6.20;99.90;;;;;;5077979;28;20012;-74
2023/04/18 03:02:20;;;;;;;11.32;4.18;;;6.20;99.90;;;;;;5096106;28;20376;-74
2023/04/18 03:04:46;;;;;;;6.32;3.30;;;6.30;99.90;;;;;;5078059;28;20489;-74
2023/04/18 03:07:12;;;;;;;11.00;3.75;;;6.20;99.90;;;;;;5096081;28;20054;-74
2023/04/18 03:09:37;;;;;;;9.05;3.75;;;6.30;99.90;;;;;;5096078;28;20082;-74
2023/04/18 03:12:03;;;;;;;8.27;3.75;;;;;;;;;;5095996;28;20029;-73
2023/04/18 03:14:32;;;;;;;11.55;3.88;;;6.20;99.90;;;;;;5095940;28;20372;-74
2023/04/18 03:16:57;;;;;;;11.57;4.45;;;6.20;99.90;;;;;;5096150;28;20093;-74
2023/04/18 03:19:23;;;;;;;8.77;4.00;;;;;;;;;;5077765;28;20020;-74
2023/04/18 03:21:49;;;;;;;8.52;3.72;;;6.20;99.90;;;;;;5095908;28;20474;-74
2023/04/18 03:24:17;;;;;;;12.55;4.55;;;6.30;99.90;;;;;;5095728;28;20090;-73
2023/04/18 03:26:44;;;;;;;11.57;4.50;;;6.10;99.90;;;;;;5095721;28;20051;-73
2023/04/18 03:29:12;;;;;;;13.13;4.00;;;6.10;99.90;;;;;;5077436;28;20035;-73
2023/04/18 03:31:40;;;;;;;8.52;4.25;;;;;;;;;;5096099;28;20374;-74
2023/04/18 03:34:08;;;;;;;9.00;4.18;;;6.00;99.90;;;;;;5095358;28;20547;-73
2023/04/18 03:36:33;;;;;;;10.40;4.23;;;6.30;99.90;;;;;;5077074;28;20548;-74
2023/04/18 03:38:59;;;;;;;10.45;3.95;;;5.90;99.90;;;;;;5095443;28;20258;-74
2023/04/18 03:41:25;;;;;;;9.10;3.67;;;5.90;99.90;;;;;;5095563;28;20081;-73
2023/04/18 03:43:51;;;;;;;8.98;3.78;;;5.90;99.90;;;;;;5095406;28;20028;-73
2023/04/18 03:46:16;;;;;;;11.48;4.65;;;5.90;99.90;;;;;;5095512;28;20024;-73
2023/04/18 03:48:42;;;;;;;11.20;4.38;;;5.90;99.90;;;;;;5077051;28;20111;-74
2023/04/18 03:51:07;;;;;;;8.50;3.88;;;5.90;99.90;;;;;;5095331;28;20590;-74
2023/04/18 03:53:33;;;;;;;8.05;4.68;;;5.90;99.90;;;;;;5095439;28;20111;-74
2023/04/18 03:55:58;;;;;;;10.23;4.57;;;5.90;99.90;;;;;;5077103;28;20035;-73
2023/04/18 03:58:24;;;;;;;8.27;4.03;;;5.80;99.90;;;;;;5096202;28;20021;-73
2023/04/18 04:00:50;;;;;;;9.52;4.22;;;5.80;99.90;;;;;;5076683;28;20016;-73
2023/04/18 04:03:16;;;;;;;10.88;4.53;;;5.80;99.90;;;;;;5094448;28;20482;-74
2023/04/18 04:05:41;;;;;;;12.43;4.65;;;5.80;99.90;;;;;;5095191;28;20174;-74
2023/04/18 04:08:07;;;;;;;11.95;5.05;;;5.80;99.90;;;;;;5076897;28;20035;-74
2023/04/18 04:10:33;;;;;;;10.43;3.97;;;6.60;99.90;;;;;;5076912;28;20111;-74
2023/04/18 04:12:58;;;;;;;10.15;4.05;;;5.90;99.90;;;;;;5077924;28;20521;-75
2023/04/18 04:15:24;;;;;;;12.43;4.95;;;5.80;99.90;;;;;;5094843;28;20028;-74
2023/04/18 04:17:50;;;;;;;11.55;4.80;;;5.80;99.90;;;;;;5076645;28;20024;-74
2023/04/18 04:20:21;;;;;;;12.32;4.15;;;5.80;99.90;;;;;;5076684;28;20043;-74
2023/04/18 04:22:55;;;;;;;10.57;4.20;;;5.60;99.90;;;;;;5095427;28;20053;-74
2023/04/18 04:25:23;;;;;;;10.88;3.75;;;5.80;99.90;;;;;;5095324;28;20402;-74
2023/04/18 04:27:52;;;;;;;9.10;4.47;;;5.80;99.90;;;;;;5076348;28;20020;-74
2023/04/18 04:30:18;;;;;;;9.10;4.45;;;5.80;99.90;;;;;;5076420;28;20017;-74
2023/04/18 04:32:44;;;;;;;14.23;5.15;;;5.90;99.90;;;;;;5094601;28;20360;-74
2023/04/18 04:35:10;;;;;;;12.77;4.70;;;5.90;99.90;;;;;;5094814;28;20020;-74
2023/04/18 04:37:37;;;;;;;10.43;4.10;;;;;;;;;;5076183;28;20032;-75
2023/04/18 04:40:04;;;;;;;11.63;4.78;;;6.00;99.90;;;;;;5094481;28;20024;-73
2023/04/18 04:42:34;;;;;;;10.60;4.57;;;6.00;99.90;;;;;;5094336;28;20013;-74
2023/04/18 04:45:01;;;;;;;8.02;4.38;;;7.80;99.90;;;;;;5094204;28;20099;-74
2023/04/18 04:47:26;;;;;;;10.50;4.70;;;6.10;99.90;;;;;;5094379;28;20081;-74
2023/04/18 04:49:52;;;;;;;12.02;4.75;;;6.20;99.90;;;;;;5094074;28;20428;-74
2023/04/18 04:52:18;;;;;;;8.55;4.05;;;6.20;99.90;;;;;;5094178;28;20073;-74
2023/04/18 04:54:45;;;;;;;10.30;4.32;;;6.20;99.90;;;;;;5093981;28;20482;-74
2023/04/18 04:57:11;;;;;;;7.50;4.18;;;6.20;99.90;;;;;;5075627;28;20031;-74
2023/04/18 04:59:36;;;;;;;8.68;4.57;;;6.20;99.90;;;;;;5075707;28;20020;-74
2023/04/18 05:02:02;;;;;;;11.45;5.10;;;6.30;99.90;;;;;;5093761;28;20024;-73
2023/04/18 05:04:28;;;;;;;11.32;4.15;;;6.30;99.90;;;;;;5075713;28;20016;-73
2023/04/18 05:06:53;;;;;;;9.50;5.18;;;6.30;99.90;;;;;;5093621;28;20020;-74
2023/04/18 05:09:19;;;;;;;9.75;5.22;;;6.30;99.90;;;;;;5093750;28;20073;-74
2023/04/18 05:11:48;;;;;;;14.73;4.82;;;6.40;99.90;;;;;;5093526;28;20600;-74
2023/04/18 05:14:13;;;;;;;12.82;5.55;;;6.40;99.90;;;;;;5093288;28;20023;-74
2023/04/18 05:16:39;;;;;;;11.30;5.43;;;6.40;99.90;;;;;;5075534;28;20395;-74
2023/04/18 05:19:04;;;;;;;10.13;5.25;;;6.40;99.90;;;;;;5093741;28;20095;-74
2023/04/18 05:21:30;;;;;;;13.45;5.35;;;6.40;99.90;;;;;;5093634;28;20408;-75
2023/04/18 05:23:56;;;;;;;8.60;3.97;;;;;;;;;;5093743;28;20027;-75
2023/04/18 05:26:23;;;;;;;13.77;5.47;;;;;;;;;;5093370;28;20033;-75
2023/04/18 05:28:48;;;;;;;11.00;4.97;;;6.50;99.90;;;;;;5075620;28;20077;-74
2023/04/18 05:31:14;;;;;;;11.38;5.35;;;6.60;99.90;;;;;;5093688;28;20471;-75
2023/04/18 05:33:39;;;;;;;9.65;5.18;;;6.60;99.90;;;;;;5093715;28;20549;-75
2023/04/18 05:36:06;;;;;;;13.40;5.60;;;6.60;99.90;;;;;;5093479;28;20378;-75
2023/04/18 05:38:31;;;;;;;11.88;4.57;;;6.60;99.90;;;;;;5075901;28;20024;-75
2023/04/18 05:40:59;;;;;;;12.77;4.85;;;6.70;99.90;;;;;;5093926;28;20031;-75
2023/04/18 05:43:24;;;;;;;11.68;4.75;;;6.70;99.90;;;;;;5093985;28;20073;-76
2023/04/18 05:45:53;;;;;;;10.48;5.55;;;6.70;99.90;;;;;;5075387;28;20024;-75
2023/04/18 05:48:20;;;;;;;15.48;4.95;;;6.70;99.90;;;;;;5093482;28;20109;-75
2023/04/18 05:50:45;;;;;;;10.98;5.03;;;6.80;99.90;;;;;;5093405;28;20030;-74
2023/04/18 05:53:11;;;;;;;10.88;4.90;;;6.70;99.90;;;;;;5093746;28;20036;-74
2023/04/18 05:55:39;;;;;;;9.73;4.85;;;6.80;99.90;;;;;;5093225;28;20127;-74
2023/04/18 05:58:04;;;;;;;11.98;4.85;;;6.90;99.90;;;;;;5075283;28;20470;-74
2023/04/18 06:00:30;;;;;;;10.95;5.30;;;6.80;99.90;;;;;;5093248;28;20074;-74
2023/04/18 06:02:55;;;;;;;14.27;5.13;;;6.90;99.90;;;;;;5075254;28;20109;-75
2023/04/18 06:05:21;;;;;;;11.60;4.70;;;6.90;99.90;;;;;;5093521;28;20370;-74
2023/04/18 06:07:47;;;;;;;13.80;5.30;;;6.90;99.90;;;;;;5073600;28;20075;-74
2023/04/18 06:10:12;;;;;;;10.68;4.88;;;6.80;99.90;;;;;;5073416;28;20048;-75
2023/04/18 06:12:39;;;;;;;10.63;5.20;;;6.90;99.90;;;;;;5092903;28;20016;-75
2023/04/18 06:15:05;;;;;;;10.35;4.93;;;7.00;99.90;;;;;;5093710;28;20059;-74
2023/04/18 06:17:31;;;;;;;11.68;5.35;;;7.00;99.90;;;;;;5073517;28;20094;-75
2023/04/18 06:19:56;;;;;;;13.73;4.97;;;7.00;99.90;;;;;;5075004;28;20141;-75
2023/04/18 06:22:22;;;;;;;12.80;5.53;;;7.10;99.90;;;;;;5074900;28;20020;-75
2023/04/18 06:24:48;;;;;;;13.30;5.28;;;7.20;99.90;;;;;;5075512;28;20463;-75
2023/04/18 06:27:13;;;;;;;10.07;4.90;;;7.20;99.90;;;;;;5096877;28;20028;-75
2023/04/18 06:29:39;;;;;;;9.23;4.45;;;7.20;99.90;;;;;;5078670;28;20024;-75
2023/04/18 06:32:05;;;;;;;10.60;4.68;;;7.20;99.90;;;;;;5097468;28;20031;-75
2023/04/18 06:34:30;;;;;;;12.60;5.07;;;7.20;99.90;;;;;;5078485;28;20028;-73
2023/04/18 06:36:56;;;;;;;11.88;5.03;;;7.20;99.90;;;;;;5078525;28;20027;-75
2023/04/18 06:39:21;;;;;;;14.48;4.95;;;7.20;99.90;;;;;;5097274;28;20533;-75
2023/04/18 06:41:48;;;;;;;10.52;5.10;;;7.30;99.90;;;;;;5096840;28;20143;-75
2023/04/18 06:44:14;;;;;;;12.40;5.15;;;7.30;99.90;;;;;;5096781;28;20024;-75
2023/04/18 06:46:40;;;;;;;11.43;5.28;;;7.40;99.90;;;;;;5078466;28;20097;-75
2023/04/18 06:49:05;;;;;;;12.35;4.53;;;7.40;99.90;;;;;;5078387;28;20360;-75
2023/04/18 06:51:31;;;;;;;14.18;4.80;;;7.60;99.90;;;;;;5096606;28;20066;-75
2023/04/18 06:53:56;;;;;;;11.50;5.13;;;7.70;99.90;;;;;;5096578;28;20040;-75
2023/04/18 06:56:22;;;;;;;11.63;5.35;;;8.10;99.90;;;;;;5096871;28;20490;-74
2023/04/18 06:58:48;;;;;;;11.93;5.30;;;8.00;99.90;;;;;;5078527;28;20027;-75
2023/04/18 07:01:14;;;;;;;9.32;4.63;;;8.40;99.90;;;;;;5078118;28;20027;-75
2023/04/18 07:03:39;;;;;;;11.35;4.78;;;8.40;99.90;;;;;;5096617;28;20391;-75
2023/04/18 07:06:07;;;;;;;10.55;4.90;;;8.70;99.90;;;;;;5096175;28;20149;-76
2023/04/18 07:08:34;;;;;;;10.38;4.05;;;8.80;99.90;;;;;;5096223;28;20031;-76
2023/04/18 07:10:59;;;;;;;9.57;4.63;;;8.70;99.90;;;;;;5078185;28;20398;-74
2023/04/18 07:13:25;;;;;;;7.50;4.65;;;8.90;99.90;;;;;;5096708;28;20031;-75
2023/04/18 07:15:51;;;;;;;11.13;4.40;;;8.90;99.90;;;;;;5077755;28;20028;-75
2023/04/18 07:18:16;;;;;;;9.57;4.20;;;8.80;99.90;;;;;;5096594;28;20019;-75
2023/04/18 07:20:42;;;;;;;8.60;4.18;;;8.80;99.90;;;;;;5096114;28;20012;-76
2023/04/18 07:23:09;;;;;;;9.70;4.50;;;8.80;99.90;;;;;;5096060;28;20020;-75
2023/04/18 07:25:35;;;;;;;8.65;3.83;;;8.80;99.90;;;;;;5078415;28;20031;-75
2023/04/18 07:28:01;;;;;;;10.10;4.22;;;8.90;99.90;;;;;;5096087;28;20059;-75
2023/04/18 07:30:26;;;;;;;7.35;3.92;;;9.00;99.90;;;;;;5096361;28;20028;-75
2023/04/18 07:32:52;;;;;;;8.98;4.43;;;9.10;99.90;;;;;;5077674;28;20035;-75
2023/04/18 07:35:17;;;;;;;11.88;4.32;;;9.10;99.90;;;;;;5095634;28;20024;-77
2023/04/18 07:37:43;;;;;;;11.73;3.83;;;9.10;99.90;;;;;;5077424;28;20024;-75
2023/04/18 07:40:09;;;;;;;8.88;4.25;;;9.10;99.90;;;;;;5095811;28;20487;-76
2023/04/18 07:42:34;;;;;;;10.73;4.45;;;9.10;99.90;;;;;;5096034;28;20467;-75
2023/04/18 07:45:00;;;;;;;10.10;4.50;;;9.10;99.90;;;;;;5095430;28;20054;-75
2023/04/18 07:47:26;;;;;;;6.85;3.47;;;9.30;99.90;;;;;;5095823;28;20032;-75
2023/04/18 07:49:52;;;;;;;7.88;3.58;;;9.30;99.90;;;;;;5077286;28;20024;-76
2023/04/18 07:52:18;;;;;;;10.10;3.47;;;9.40;99.90;;;;;;5095494;28;20356;-75
2023/04/18 07:54:43;;;;;;;6.13;3.03;;;9.50;99.90;;;;;;5095353;28;20445;-76
2023/04/18 07:57:09;;;;;;;8.18;4.10;;;9.60;99.90;;;;;;5077142;28;20478;-76
2023/04/18 07:59:35;;;;;;;6.90;3.40;;;9.60;99.90;;;;;;5095216;28;20024;-76
2023/04/18 08:02:01;;;;;;;7.22;3.35;;;9.80;99.90;;;;;;5095188;28;20103;-75
2023/04/18 08:04:27;;;;;;;6.63;3.03;;;9.90;99.90;;;;;;5095200;28;20026;-76
2023/04/18 08:06:52;;;;;;;6.13;2.85;;;10.00;99.90;;;;;;5096068;28;20569;-76
2023/04/18 08:09:19;;;;;;;7.70;3.80;;;10.00;99.90;;;;;;5077489;28;20066;-77
2023/04/18 08:11:45;;;;;;;8.50;2.85;;;10.10;99.90;;;;;;5095212;28;20020;-77
2023/04/18 08:14:11;;;;;;;6.35;2.50;;;10.30;99.90;;;;;;5095505;28;20028;-75
2023/04/18 08:16:37;;;;;;;8.02;3.42;;;10.40;99.90;;;;;;5077045;28;20032;-77
2023/04/18 08:19:02;;;;;;;7.32;2.88;;;10.60;99.90;;;;;;5094775;28;20497;-75
2023/04/18 08:21:28;;;;;;;7.85;2.50;;;10.50;99.90;;;;;;5076729;28;20020;-77
2023/04/18 08:23:54;;;;;;;4.57;2.30;;;10.50;99.90;;;;;;5094769;28;20016;-77
2023/04/18 08:26:20;;;;;;;5.82;2.42;;;10.60;99.90;;;;;;5098332;28;20031;-77
2023/04/18 08:28:46;;;;;;;7.53;2.65;;;10.50;99.90;;;;;;5081601;28;20027;-77
2023/04/18 08:31:12;;;;;;;5.90;2.13;;;10.50;99.90;;;;;;5079902;28;20024;-77
2023/04/18 08:33:38;;;;;;;5.70;2.05;;;10.50;99.90;;;;;;5097768;28;20012;-77
2023/04/18 08:36:04;;;;;;;6.03;2.60;;;10.70;99.90;;;;;;5099098;28;20069;-77
2023/04/18 08:38:29;;;;;;;6.20;2.47;;;10.90;99.90;;;;;;5080430;28;20020;-74
2023/04/18 08:40:55;;;;;;;3.90;2.17;;;11.20;99.90;;;;;;5094292;28;20020;-74
2023/04/18 08:43:21;;;;;;;6.13;2.35;;;11.20;99.90;;;;;;5094492;28;20493;-72
2023/04/18 08:45:47;;;;;;;8.07;2.90;;;11.40;99.90;;;;;;5094501;28;20031;-72
2023/04/18 08:48:14;;;;;;;5.78;1.92;;;11.60;99.90;;;;;;5093433;28;20442;-72
2023/04/18 08:50:41;;;;;;;4.50;2.05;;;11.80;99.90;;;;;;5094162;28;20095;-72
2023/04/18 08:53:06;;;;;;;5.35;2.15;;;11.90;99.90;;;;;;5075891;28;20036;-72
2023/04/18 08:55:35;;;;;;;6.63;2.45;;;12.00;99.90;;;;;;5075801;28;20026;-72
2023/04/18 08:58:01;;;;;;;5.65;2.08;;;12.20;99.90;;;;;;5075872;28;20102;-72
2023/04/18 09:00:28;;;;;;;3.35;1.65;;;12.20;99.90;;;;;;5075736;28;20012;-72
2023/04/18 09:02:55;;;;;;;4.47;1.90;;;12.20;99.90;;;;;;5093853;28;20059;-72
2023/04/18 09:05:23;;;;;;;4.88;2.20;;;12.20;99.90;;;;;;5094054;28;20099;-72
2023/04/18 09:07:50;;;;;;;3.72;1.75;;;12.00;99.90;;;;;;5093835;28;20027;-72
2023/04/18 09:10:26;;;;;;;4.10;1.65;;;12.00;99.90;;;;;;5093880;28;20185;-72
2023/04/18 09:12:51;;;;;;;2.17;1.50;;;11.80;99.90;;;;;;5093652;28;20161;-72
2023/04/18 09:15:22;;;;;;;3.72;2.10;;;11.70;99.90;;;;;;5094479;28;20508;-72
2023/04/18 09:17:49;;;;;;;2.38;1.08;;;11.60;99.90;;;;;;5093718;28;20032;-72
2023/04/18 09:20:39;;;;;;;6.55;1.65;;;11.70;99.90;;;;;;5075651;28;20550;-72
2023/04/18 09:23:13;;;;;;;3.65;1.50;;;11.70;99.90;;;;;;5093826;28;20051;-73
2023/04/18 09:25:46;;;;;;;4.85;2.00;;;11.80;99.90;;;;;;5075566;28;20028;-72
2023/04/18 09:28:36;;;;;;;3.00;1.65;;;12.00;99.90;;;;;;5075437;28;20471;-72
2023/04/18 09:31:14;;;;;;;3.90;1.65;;;12.10;99.90;;;;;;5075475;28;20072;-73
2023/04/18 09:33:51;;;;;;;2.60;1.40;;;12.30;99.90;;;;;;5075613;28;20020;-73
2023/04/18 09:36:22;;;;;;;2.22;1.20;;;12.40;99.90;;;;;;5093951;28;20270;-73
2023/04/18 09:38:51;;;;;;;2.92;1.23;;;12.50;99.90;;;;;;5093510;28;20421;-73
2023/04/18 09:41:17;;;;;;;4.18;1.63;;;12.60;99.90;;;;;;5075291;28;20020;-73
2023/04/18 09:43:43;;;;;;;2.63;1.25;;;12.50;99.90;;;;;;5093495;28;20166;-72
2023/04/18 09:46:09;;;;;;;3.15;1.52;;;12.50;99.90;;;;;;5093537;28;20028;-72
2023/04/18 09:48:35;;;;;;;3.97;1.85;;;12.70;99.90;;;;;;5075304;28;20502;-72
2023/04/18 09:51:06;;;;;;;5.30;1.85;;;12.90;99.90;;;;;;5093520;28;20024;-72
2023/04/18 09:53:33;;;;;;;5.20;2.40;;;13.00;99.90;;;;;;5093243;28;20036;-72
2023/04/18 09:56:00;;;;;;;3.67;1.65;;;13.00;99.90;;;;;;5075100;28;20032;-74
2023/04/18 09:58:31;;;;;;;2.22;1.20;;;12.90;99.90;;;;;;5093484;28;20479;-72
2023/04/18 10:00:57;;;;;;;2.60;1.30;;;13.00;99.90;;;;;;5097313;28;20054;-73
2023/04/18 10:03:31;;;;;;;3.67;1.67;;;13.10;99.90;;;;;;5097591;28;20139;-73
2023/04/18 10:05:57;;;;;;;3.03;1.27;;;13.40;99.90;;;;;;5079261;28;20028;-73
2023/04/18 10:08:23;;;;;;;2.88;1.08;;;13.40;99.90;;;;;;5097344;28;20485;-72
2023/04/18 10:10:48;;;;;;;3.92;1.23;;;13.40;99.90;;;;;;5079122;28;20054;-72
2023/04/18 10:13:16;;;;;;;1.67;0.73;;;13.30;99.90;;;;;;5097730;28;20100;-72
2023/04/18 10:15:42;;;;;;;7.20;1.20;;;13.30;99.90;;;;;;5097096;28;20054;-72
2023/04/18 10:18:12;;;;;;;9.57;2.15;;;13.20;99.90;;;;;;5078668;28;20085;-72
2023/04/18 10:20:40;;;;;;;5.93;1.90;;;13.30;99.90;;;;;;5096922;28;20394;-73
2023/04/18 10:23:30;;;;;;;4.40;1.98;;;13.20;99.90;;;;;;5078766;28;20058;-73
2023/04/18 10:25:57;;;;;;;2.92;1.25;;;13.20;99.90;;;;;;5078759;28;20032;-73
2023/04/18 10:28:23;;;;;;;5.07;1.45;;;13.10;99.90;;;;;;5078606;28;20050;-73
2023/04/18 10:30:55;;;;;;;2.80;1.05;;;13.00;99.90;;;;;;5097402;28;20510;-73
2023/04/18 10:33:37;;;;;;;2.83;1.33;;;12.90;99.90;;;;;;5078671;28;20111;-73
2023/04/18 10:36:02;;;;;;;3.67;1.95;;;12.90;99.90;;;;;;5096677;28;20028;-72
2023/04/18 10:38:28;;;;;;;4.47;2.10;;;12.90;99.90;;;;;;5097341;28;20081;-73
2023/04/18 10:41:26;;;;;;;7.25;2.22;;;12.80;99.90;;;;;;5078366;28;20046;-72
2023/04/18 10:44:13;;;;;;;5.88;2.47;;;12.80;99.90;;;;;;5096672;28;20016;-72
2023/04/18 10:46:51;;;;;;;5.35;2.13;;;12.40;99.90;;;;;;5096365;28;20372;-72
2023/04/18 10:49:27;;;;;;;5.05;2.00;;;12.40;99.90;;;;;;5096513;28;20035;-73
2023/04/18 10:51:54;;;;;;;4.13;1.83;;;12.40;99.90;;;;;;5096794;28;20032;-72
2023/04/18 10:54:27;;;;;;;6.10;1.85;;;12.70;99.90;;;;;;5078118;28;20032;-72
2023/04/18 10:56:55;;;;;;;3.25;1.60;;;12.70;99.90;;;;;;5096670;28;20032;-73
2023/04/18 10:59:25;;;;;;;4.57;2.15;;;12.70;99.90;;;;;;5096642;28;20031;-73
2023/04/18 11:01:58;;;;;;;4.28;1.98;;;12.60;99.90;;;;;;5096280;28;20434;-73
2023/04/18 11:04:24;;;;;;;2.97;1.38;;;12.60;99.90;;;;;;5096314;28;20398;-73
2023/04/18 11:06:56;;;;;;;2.88;1.30;;;12.60;99.90;;;;;;5096031;28;20520;-73
2023/04/18 11:09:22;;;;;;;2.90;1.50;;;12.50;99.90;;;;;;5077871;28;20020;-73
2023/04/18 11:12:02;;;;;;;3.78;1.38;;;12.70;99.90;;;;;;5077369;28;20093;-73
2023/04/18 11:14:41;;;;;;;2.88;1.55;;;13.20;99.90;;;;;;5096407;28;20020;-73
2023/04/18 11:17:24;;;;;;;3.47;0.98;;;13.70;99.90;;;;;;5095947;28;20414;-73
2023/04/18 11:19:59;;;;;;;1.92;1.10;;;14.20;99.90;;;;;;5095887;28;20421;-73
2023/04/18 11:22:25;;;;;;;1.48;0.55;;;14.40;99.90;;;;;;5077797;28;20108;-73
2023/04/18 11:24:50;;;;;;;2.58;1.02;;;14.40;99.90;;;;;;5095922;28;20052;-73
2023/04/18 11:27:16;;;;;;;4.28;1.20;;;14.40;99.90;;;;;;5096308;28;20028;-73
2023/04/18 11:29:41;;;;;;;6.03;1.58;;;14.40;99.90;;;;;;5077596;28;20028;-73
2023/04/18 11:32:08;;;;;;;2.22;0.80;;;14.40;99.90;;;;;;5095756;28;20099;-73
2023/04/18 11:34:37;;;;;;;3.72;1.02;;;14.40;99.90;;;;;;5095787;28;20059;-72
2023/04/18 11:37:07;;;;;;;1.77;0.98;;;14.40;99.90;;;;;;5095497;28;20103;-72
2023/04/18 11:39:42;;;;;;;2.65;1.13;;;14.30;99.90;;;;;;5095601;28;20020;-71
2023/04/18 11:42:08;;;;;;;3.67;1.10;;;14.40;99.90;;;;;;5095669;28;20025;-72
2023/04/18 11:44:38;;;;;;;2.17;1.00;;;14.30;99.90;;;;;;5095498;28;20016;-72
2023/04/18 11:47:05;;;;;;;2.65;1.10;;;14.30;99.90;;;;;;5095485;28;20055;-72
2023/04/18 11:49:31;;;;;;;4.10;2.08;;;14.30;99.90;;;;;;5095459;28;20102;-72
2023/04/18 11:51:58;;;;;;;3.00;1.42;;;14.30;99.90;;;;;;5077356;28;20032;-72
2023/04/18 11:54:43;;;;;;;3.20;1.45;;;14.40;99.90;;;;;;5095360;28;20036;-72
2023/04/18 11:57:24;;;;;;;3.80;1.75;;;14.40;99.90;;;;;;5095149;28;20059;-72
2023/04/18 11:59:55;;;;;;;5.40;1.92;;;14.40;99.90;;;;;;5077073;28;20020;-72
2023/04/18 12:02:25;;;;;;;4.50;2.33;;;14.60;99.90;;;;;;5095159;28;20493;-72
2023/04/18 12:04:56;;;;;;;4.88;2.45;;;15.00;99.90;;;;;;5095082;28;20020;-72
2023/04/18 12:07:39;;;;;;;3.70;1.98;;;15.30;99.90;;;;;;5095678;28;20024;-72
2023/04/18 12:10:25;;;;;;;3.17;2.13;;;15.30;99.90;;;;;;5095102;28;20024;-72
2023/04/18 12:12:52;;;;;;;6.13;2.42;;;15.20;99.90;;;;;;5095003;28;20067;-72
2023/04/18 12:15:18;;;;;;;3.33;2.58;;;14.70;99.90;;;;;;5094854;28;20024;-73
2023/04/18 12:17:51;;;;;;;4.10;2.25;;;14.50;99.90;;;;;;5076423;28;20036;-73
2023/04/18 12:20:17;;;;;;;4.68;2.15;;;14.40;99.90;;;;;;5094602;28;20107;-73
2023/04/18 12:22:46;;;;;;;5.18;2.20;;;14.40;99.90;;;;;;5094220;28;20077;-73
2023/04/18 12:25:21;;;;;;;;;;;14.30;99.90;;;;;;5094929;28;20020;-73
2023/04/18 12:27:58;;;;;;;4.88;2.80;;;14.30;99.90;;;;;;5093988;28;19911;-75
2023/04/18 12:30:29;;;;;;;6.45;2.55;;;14.30;99.90;;;;;;5094546;28;20024;-73
2023/04/18 12:33:00;;;;;;;7.57;3.25;;;14.40;99.90;;;;;;5094447;28;20032;-74
2023/04/18 12:35:27;;;;;;;6.28;3.35;;;14.40;99.90;;;;;;5094916;28;20184;-73
2023/04/18 12:37:54;;;;;;;7.47;3.00;;;14.50;99.90;;;;;;5094264;28;20051;-73
2023/04/18 12:40:21;;;;;;;7.18;3.10;;;14.60;99.90;;;;;;5076303;28;20013;-73
2023/04/18 12:42:48;;;;;;;8.43;3.25;;;14.60;99.90;;;;;;5094336;28;20024;-74
2023/04/18 12:45:15;;;;;;;6.72;3.15;;;14.60;99.90;;;;;;5094524;28;20031;-74
2023/04/18 12:47:43;;;;;;;6.43;3.00;;;14.60;99.90;;;;;;5076049;28;20032;-73
2023/04/18 12:50:10;;;;;;;6.25;3.20;;;14.50;99.90;;;;;;5076302;28;20165;-73
2023/04/18 12:52:39;;;;;;;6.05;3.00;;;14.40;99.90;;;;;;5075713;28;20036;-73
2023/04/18 12:55:06;;;;;;;10.23;3.83;;;14.40;99.90;;;;;;5076134;28;20029;-73